Current | Forecast
Updated: 6:30 AM JST on August 22, 2017
Observed at Fukuoka Airport, Japan
Temperature 81°F
Humidity 79%
Dew Point 73°F
Wind SSE at 9 mph
Pressure 29.92 in (Steady)
Conditions Scattered Clouds
Visibility 6.2 miles
UV 0 out of 16
Clouds (FEW) : 1500 ft
Scattered Clouds (SCT) : 12000 ft
Yesterday's Maximum 90°F
Yesterday's Minimum 77°F approx.
Yesterday's Cooling Degree Days 18 approx.
Sunrise5:46 AM JST
Sunset6:56 PM JST
Moon Rise5:55 AM JST
Moon Set7:20 PM JST
Moon PhaseMoon Phase
New Moon
Raw METARMETAR RJFF 212130Z 16008KT 9999 FEW015 SCT120 27/23 Q1013 RMK 1CU015 3AC120 A2992


Monday
. High: 75° F.
Tuesday
. High: 80° F.
Wednesday
. High: 73° F.
Thursday
. High: 77° F.
Friday
. High: 66° F.
Saturday
. High: 77° F.
Sunday
. High: 80° F.
Monday
. High: 82° F.

Units: English | Metric

Find the Weather for any City, State or Zipcode, or Country:

U.S. State List | Severe Weather | Tropical Storms | Ski Conditions
United States | Canada | Central America | South America | Asia | Europe | Australia | Africa | Islands

Weather Underground

© Copyright 2017
The Weather Company, LLC